sensor_id;sensor_type;location;lat;lon;timestamp;temperature;humidity
39677;DHT22;27789;50.840;4.386;2024-01-16T00:00:54;3.00;99.90
39677;DHT22;27789;50.840;4.386;2024-01-16T00:03:19;2.90;99.90
39677;DHT22;27789;50.840;4.386;2024-01-16T00:05:45;2.80;99.90
39677;DHT22;27789;50.840;4.386;2024-01-16T00:08:10;2.90;99.90
39677;DHT22;27789;50.840;4.386;2024-01-16T00:10:35;2.80;99.90
39677;DHT22;27789;50.840;4.386;2024-01-16T00:13:01;2.80;99.90
39677;DHT22;27789;50.840;4.386;2024-01-16T00:15:26;2.80;99.90
39677;DHT22;27789;50.840;4.386;2024-01-16T00:17:52;2.70;99.90
39677;DHT22;27789;50.840;4.386;2024-01-16T00:20:18;2.70;99.90
39677;DHT22;27789;50.840;4.386;2024-01-16T00:22:44;2.60;99.90
39677;DHT22;27789;50.840;4.386;2024-01-16T00:25:09;2.50;99.90
39677;DHT22;27789;50.840;4.386;2024-01-16T00:27:35;2.50;99.90
39677;DHT22;27789;50.840;4.386;2024-01-16T00:30:00;2.50;99.90
39677;DHT22;27789;50.840;4.386;2024-01-16T00:32:26;2.50;99.90
39677;DHT22;27789;50.840;4.386;2024-01-16T00:34:51;2.40;99.90
39677;DHT22;27789;50.840;4.386;2024-01-16T00:37:16;2.50;99.90
39677;DHT22;27789;50.840;4.386;2024-01-16T00:39:42;2.50;99.90
39677;DHT22;27789;50.840;4.386;2024-01-16T00:42:07;2.50;99.90
39677;DHT22;27789;50.840;4.386;2024-01-16T00:44:33;2.40;99.90
39677;DHT22;27789;50.840;4.386;2024-01-16T00:47:00;2.50;99.90
39677;DHT22;27789;50.840;4.386;2024-01-16T00:49:27;2.50;99.90
39677;DHT22;27789;50.840;4.386;2024-01-16T00:51:53;2.40;99.90
39677;DHT22;27789;50.840;4.386;2024-01-16T00:54:18;2.40;99.90
39677;DHT22;27789;50.840;4.386;2024-01-16T00:56:43;2.40;99.90
39677;DHT22;27789;50.840;4.386;2024-01-16T00:59:09;2.40;99.90
39677;DHT22;27789;50.840;4.386;2024-01-16T01:01:36;2.40;99.90
39677;DHT22;27789;50.840;4.386;2024-01-16T01:04:02;2.40;99.90
39677;DHT22;27789;50.840;4.386;2024-01-16T01:06:27;2.30;99.90
39677;DHT22;27789;50.840;4.386;2024-01-16T01:08:53;2.30;99.90
39677;DHT22;27789;50.840;4.386;2024-01-16T01:11:18;2.30;99.90
39677;DHT22;27789;50.840;4.386;2024-01-16T01:13:44;2.30;99.90
39677;DHT22;27789;50.840;4.386;2024-01-16T01:16:09;2.30;99.90
39677;DHT22;27789;50.840;4.386;2024-01-16T01:18:35;2.30;99.90
39677;DHT22;27789;50.840;4.386;2024-01-16T01:21:00;2.40;99.90
39677;DHT22;27789;50.840;4.386;2024-01-16T01:23:25;2.30;99.90
39677;DHT22;27789;50.840;4.386;2024-01-16T01:25:51;2.20;99.90
39677;DHT22;27789;50.840;4.386;2024-01-16T01:28:16;2.20;99.90
39677;DHT22;27789;50.840;4.386;2024-01-16T01:30:42;2.10;99.90
39677;DHT22;27789;50.840;4.386;2024-01-16T01:33:07;2.10;99.90
39677;DHT22;27789;50.840;4.386;2024-01-16T01:35:33;2.10;99.90
39677;DHT22;27789;50.840;4.386;2024-01-16T01:37:58;2.00;99.90
39677;DHT22;27789;50.840;4.386;2024-01-16T01:40:24;2.00;99.90
39677;DHT22;27789;50.840;4.386;2024-01-16T01:42:49;2.00;99.90
39677;DHT22;27789;50.840;4.386;2024-01-16T01:45:15;2.00;99.90
39677;DHT22;27789;50.840;4.386;2024-01-16T01:47:40;2.00;99.90
39677;DHT22;27789;50.840;4.386;2024-01-16T01:50:08;2.00;99.90
39677;DHT22;27789;50.840;4.386;2024-01-16T01:52:34;2.00;99.90
39677;DHT22;27789;50.840;4.386;2024-01-16T01:55:00;1.90;99.90
39677;DHT22;27789;50.840;4.386;2024-01-16T01:57:26;1.90;99.90
39677;DHT22;27789;50.840;4.386;2024-01-16T01:59:52;1.90;99.90
39677;DHT22;27789;50.840;4.386;2024-01-16T02:02:17;1.90;99.90
39677;DHT22;27789;50.840;4.386;2024-01-16T02:04:44;1.90;99.90
39677;DHT22;27789;50.840;4.386;2024-01-16T02:07:11;1.90;99.90
39677;DHT22;27789;50.840;4.386;2024-01-16T02:09:37;1.90;99.90
39677;DHT22;27789;50.840;4.386;2024-01-16T02:12:03;1.90;99.90
39677;DHT22;27789;50.840;4.386;2024-01-16T02:14:29;1.90;99.90
39677;DHT22;27789;50.840;4.386;2024-01-16T02:16:54;1.80;99.90
39677;DHT22;27789;50.840;4.386;2024-01-16T02:19:19;1.80;99.90
39677;DHT22;27789;50.840;4.386;2024-01-16T02:21:49;1.90;99.90
39677;DHT22;27789;50.840;4.386;2024-01-16T02:24:15;1.80;99.90
39677;DHT22;27789;50.840;4.386;2024-01-16T02:26:41;1.80;99.90
39677;DHT22;27789;50.840;4.386;2024-01-16T02:29:06;1.80;99.90
39677;DHT22;27789;50.840;4.386;2024-01-16T02:31:34;1.80;99.90
39677;DHT22;27789;50.840;4.386;2024-01-16T02:34:00;1.70;99.90
39677;DHT22;27789;50.840;4.386;2024-01-16T02:36:26;1.70;99.90
39677;DHT22;27789;50.840;4.386;2024-01-16T02:38:52;1.60;99.90
39677;DHT22;27789;50.840;4.386;2024-01-16T02:41:17;1.70;99.90
39677;DHT22;27789;50.840;4.386;2024-01-16T02:43:43;1.60;99.90
39677;DHT22;27789;50.840;4.386;2024-01-16T02:46:09;1.60;99.90
39677;DHT22;27789;50.840;4.386;2024-01-16T02:48:35;1.60;99.90
39677;DHT22;27789;50.840;4.386;2024-01-16T02:51:01;1.60;99.90
39677;DHT22;27789;50.840;4.386;2024-01-16T02:53:26;1.60;99.90
39677;DHT22;27789;50.840;4.386;2024-01-16T02:55:54;1.60;99.90
39677;DHT22;27789;50.840;4.386;2024-01-16T02:58:20;1.60;99.90
39677;DHT22;27789;50.840;4.386;2024-01-16T03:00:45;1.60;99.90
39677;DHT22;27789;50.840;4.386;2024-01-16T03:03:11;1.60;99.90
39677;DHT22;27789;50.840;4.386;2024-01-16T03:05:36;1.60;99.90
39677;DHT22;27789;50.840;4.386;2024-01-16T03:08:02;1.60;99.90
39677;DHT22;27789;50.840;4.386;2024-01-16T03:10:27;1.60;99.90
39677;DHT22;27789;50.840;4.386;2024-01-16T03:12:53;1.60;99.90
39677;DHT22;27789;50.840;4.386;2024-01-16T03:15:18;1.60;99.90
39677;DHT22;27789;50.840;4.386;2024-01-16T03:17:44;1.50;99.90
39677;DHT22;27789;50.840;4.386;2024-01-16T03:20:09;1.60;99.90
39677;DHT22;27789;50.840;4.386;2024-01-16T03:22:35;1.60;99.90
39677;DHT22;27789;50.840;4.386;2024-01-16T03:25:00;1.60;99.90
39677;DHT22;27789;50.840;4.386;2024-01-16T03:27:27;1.60;99.90
39677;DHT22;27789;50.840;4.386;2024-01-16T03:29:53;1.60;99.90
39677;DHT22;27789;50.840;4.386;2024-01-16T03:32:18;1.70;99.90
39677;DHT22;27789;50.840;4.386;2024-01-16T03:34:44;1.70;99.90
39677;DHT22;27789;50.840;4.386;2024-01-16T03:37:09;1.70;99.90
39677;DHT22;27789;50.840;4.386;2024-01-16T03:39:35;1.70;99.90
39677;DHT22;27789;50.840;4.386;2024-01-16T03:42:00;1.70;99.90
39677;DHT22;27789;50.840;4.386;2024-01-16T03:44:26;1.70;99.90
39677;DHT22;27789;50.840;4.386;2024-01-16T03:46:51;1.50;99.90
39677;DHT22;27789;50.840;4.386;2024-01-16T03:49:17;1.50;99.90
39677;DHT22;27789;50.840;4.386;2024-01-16T03:51:42;1.50;99.90
39677;DHT22;27789;50.840;4.386;2024-01-16T03:54:12;1.50;99.90
39677;DHT22;27789;50.840;4.386;2024-01-16T03:56:38;1.50;99.90
39677;DHT22;27789;50.840;4.386;2024-01-16T03:59:03;1.40;99.90
39677;DHT22;27789;50.840;4.386;2024-01-16T04:01:29;1.40;99.90
39677;DHT22;27789;50.840;4.386;2024-01-16T04:03:55;1.30;99.90
39677;DHT22;27789;50.840;4.386;2024-01-16T04:06:20;1.20;99.90
39677;DHT22;27789;50.840;4.386;2024-01-16T04:08:46;1.20;99.90
39677;DHT22;27789;50.840;4.386;2024-01-16T04:11:12;1.20;99.90
39677;DHT22;27789;50.840;4.386;2024-01-16T04:13:37;1.20;99.90
39677;DHT22;27789;50.840;4.386;2024-01-16T04:16:03;1.20;99.90
39677;DHT22;27789;50.840;4.386;2024-01-16T04:18:28;1.20;99.90
39677;DHT22;27789;50.840;4.386;2024-01-16T04:20:54;1.20;99.90
39677;DHT22;27789;50.840;4.386;2024-01-16T04:23:19;1.30;99.90
39677;DHT22;27789;50.840;4.386;2024-01-16T04:25:45;1.20;99.90
39677;DHT22;27789;50.840;4.386;2024-01-16T04:28:10;1.20;99.90
39677;DHT22;27789;50.840;4.386;2024-01-16T04:30:35;1.10;99.90
39677;DHT22;27789;50.840;4.386;2024-01-16T04:33:01;1.10;99.90
39677;DHT22;27789;50.840;4.386;2024-01-16T04:35:26;1.10;99.90
39677;DHT22;27789;50.840;4.386;2024-01-16T04:37:52;1.10;99.90
39677;DHT22;27789;50.840;4.386;2024-01-16T04:40:17;1.10;99.90
39677;DHT22;27789;50.840;4.386;2024-01-16T04:42:43;1.20;99.90
39677;DHT22;27789;50.840;4.386;2024-01-16T04:45:09;1.20;99.90
39677;DHT22;27789;50.840;4.386;2024-01-16T04:47:34;1.10;99.90
39677;DHT22;27789;50.840;4.386;2024-01-16T04:50:00;1.20;99.90
39677;DHT22;27789;50.840;4.386;2024-01-16T04:52:25;1.20;99.90
39677;DHT22;27789;50.840;4.386;2024-01-16T04:54:51;1.20;99.90
39677;DHT22;27789;50.840;4.386;2024-01-16T04:57:16;1.20;99.90
39677;DHT22;27789;50.840;4.386;2024-01-16T04:59:42;1.20;99.90
39677;DHT22;27789;50.840;4.386;2024-01-16T05:02:07;1.20;99.90
39677;DHT22;27789;50.840;4.386;2024-01-16T05:04:33;1.20;99.90
39677;DHT22;27789;50.840;4.386;2024-01-16T05:07:01;1.10;99.90
39677;DHT22;27789;50.840;4.386;2024-01-16T05:09:27;1.10;99.90
39677;DHT22;27789;50.840;4.386;2024-01-16T05:11:52;1.10;99.90
39677;DHT22;27789;50.840;4.386;2024-01-16T05:14:17;1.20;99.90
39677;DHT22;27789;50.840;4.386;2024-01-16T05:16:43;1.20;99.90
39677;DHT22;27789;50.840;4.386;2024-01-16T05:19:09;1.20;99.90
39677;DHT22;27789;50.840;4.386;2024-01-16T05:21:35;1.20;99.90
39677;DHT22;27789;50.840;4.386;2024-01-16T05:24:00;1.20;99.90
39677;DHT22;27789;50.840;4.386;2024-01-16T05:26:26;1.20;99.90
39677;DHT22;27789;50.840;4.386;2024-01-16T05:28:51;1.20;99.90
39677;DHT22;27789;50.840;4.386;2024-01-16T05:31:17;1.20;99.90
39677;DHT22;27789;50.840;4.386;2024-01-16T05:33:42;1.20;99.90
39677;DHT22;27789;50.840;4.386;2024-01-16T05:36:08;1.20;99.90
39677;DHT22;27789;50.840;4.386;2024-01-16T05:38:34;1.20;99.90
39677;DHT22;27789;50.840;4.386;2024-01-16T05:41:00;1.10;99.90
39677;DHT22;27789;50.840;4.386;2024-01-16T05:43:25;1.00;99.90
39677;DHT22;27789;50.840;4.386;2024-01-16T05:45:53;1.10;99.90
39677;DHT22;27789;50.840;4.386;2024-01-16T05:48:18;1.10;99.90
39677;DHT22;27789;50.840;4.386;2024-01-16T05:50:44;1.10;99.90
39677;DHT22;27789;50.840;4.386;2024-01-16T05:53:10;1.10;99.90
39677;DHT22;27789;50.840;4.386;2024-01-16T05:55:35;1.10;99.90
39677;DHT22;27789;50.840;4.386;2024-01-16T05:58:02;1.10;99.90
39677;DHT22;27789;50.840;4.386;2024-01-16T06:00:27;1.20;99.90
39677;DHT22;27789;50.840;4.386;2024-01-16T06:02:53;1.20;99.90
39677;DHT22;27789;50.840;4.386;2024-01-16T06:05:19;1.20;99.90
39677;DHT22;27789;50.840;4.386;2024-01-16T06:07:44;1.10;99.90
39677;DHT22;27789;50.840;4.386;2024-01-16T06:10:13;1.10;99.90
39677;DHT22;27789;50.840;4.386;2024-01-16T06:12:39;1.20;99.90
39677;DHT22;27789;50.840;4.386;2024-01-16T06:15:05;1.20;99.90
39677;DHT22;27789;50.840;4.386;2024-01-16T06:17:30;1.20;99.90
39677;DHT22;27789;50.840;4.386;2024-01-16T06:19:56;1.20;99.90
39677;DHT22;27789;50.840;4.386;2024-01-16T06:22:21;1.30;99.90
39677;DHT22;27789;50.840;4.386;2024-01-16T06:24:47;1.30;99.90
39677;DHT22;27789;50.840;4.386;2024-01-16T06:27:12;1.30;99.90
39677;DHT22;27789;50.840;4.386;2024-01-16T06:29:44;1.30;99.90
39677;DHT22;27789;50.840;4.386;2024-01-16T06:32:10;1.40;99.90
39677;DHT22;27789;50.840;4.386;2024-01-16T06:34:35;1.30;99.90
39677;DHT22;27789;50.840;4.386;2024-01-16T06:37:00;1.40;99.90
39677;DHT22;27789;50.840;4.386;2024-01-16T06:39:26;1.40;99.90
39677;DHT22;27789;50.840;4.386;2024-01-16T06:41:51;1.40;99.90
39677;DHT22;27789;50.840;4.386;2024-01-16T06:44:18;3.90;99.90
39677;DHT22;27789;50.840;4.386;2024-01-16T06:46:43;1.40;99.90
39677;DHT22;27789;50.840;4.386;2024-01-16T06:49:09;1.40;99.90
39677;DHT22;27789;50.840;4.386;2024-01-16T06:51:34;1.40;99.90
39677;DHT22;27789;50.840;4.386;2024-01-16T06:54:00;1.40;99.90
39677;DHT22;27789;50.840;4.386;2024-01-16T06:56:26;1.50;99.90
39677;DHT22;27789;50.840;4.386;2024-01-16T06:58:52;1.40;99.90
39677;DHT22;27789;50.840;4.386;2024-01-16T07:01:18;1.50;99.90
39677;DHT22;27789;50.840;4.386;2024-01-16T07:03:43;1.40;99.90
39677;DHT22;27789;50.840;4.386;2024-01-16T07:06:09;1.30;99.90
39677;DHT22;27789;50.840;4.386;2024-01-16T07:08:35;1.30;99.90
39677;DHT22;27789;50.840;4.386;2024-01-16T07:11:01;1.30;99.90
39677;DHT22;27789;50.840;4.386;2024-01-16T07:13:26;1.20;99.90
39677;DHT22;27789;50.840;4.386;2024-01-16T07:15:52;1.20;99.90
39677;DHT22;27789;50.840;4.386;2024-01-16T07:18:17;1.20;99.90
39677;DHT22;27789;50.840;4.386;2024-01-16T07:20:43;1.20;99.90
39677;DHT22;27789;50.840;4.386;2024-01-16T07:23:10;1.20;99.90
39677;DHT22;27789;50.840;4.386;2024-01-16T07:25:36;1.20;99.90
39677;DHT22;27789;50.840;4.386;2024-01-16T07:28:01;1.10;99.90
39677;DHT22;27789;50.840;4.386;2024-01-16T07:30:27;1.10;99.90
39677;DHT22;27789;50.840;4.386;2024-01-16T07:32:52;1.00;99.90
39677;DHT22;27789;50.840;4.386;2024-01-16T07:35:19;1.00;99.90
39677;DHT22;27789;50.840;4.386;2024-01-16T07:37:44;1.00;99.90
39677;DHT22;27789;50.840;4.386;2024-01-16T07:40:10;1.00;99.90
39677;DHT22;27789;50.840;4.386;2024-01-16T07:42:36;1.10;99.90
39677;DHT22;27789;50.840;4.386;2024-01-16T07:45:02;1.10;99.90
39677;DHT22;27789;50.840;4.386;2024-01-16T07:47:30;1.10;99.90
39677;DHT22;27789;50.840;4.386;2024-01-16T07:49:57;1.10;99.90
39677;DHT22;27789;50.840;4.386;2024-01-16T07:52:22;1.00;99.90
39677;DHT22;27789;50.840;4.386;2024-01-16T07:54:48;0.90;99.90
39677;DHT22;27789;50.840;4.386;2024-01-16T07:57:13;1.00;99.90
39677;DHT22;27789;50.840;4.386;2024-01-16T07:59:39;1.10;99.90
39677;DHT22;27789;50.840;4.386;2024-01-16T08:02:06;1.10;99.90
39677;DHT22;27789;50.840;4.386;2024-01-16T08:04:32;1.10;99.90
39677;DHT22;27789;50.840;4.386;2024-01-16T08:06:57;1.20;99.90
39677;DHT22;27789;50.840;4.386;2024-01-16T08:09:23;1.20;99.90
39677;DHT22;27789;50.840;4.386;2024-01-16T08:11:48;1.30;99.90
39677;DHT22;27789;50.840;4.386;2024-01-16T08:14:13;1.20;99.90
39677;DHT22;27789;50.840;4.386;2024-01-16T08:16:39;1.20;99.90
39677;DHT22;27789;50.840;4.386;2024-01-16T08:19:04;1.30;99.90
39677;DHT22;27789;50.840;4.386;2024-01-16T08:21:30;1.20;99.90
39677;DHT22;27789;50.840;4.386;2024-01-16T08:23:55;1.30;99.90
39677;DHT22;27789;50.840;4.386;2024-01-16T08:26:21;1.30;99.90
39677;DHT22;27789;50.840;4.386;2024-01-16T08:28:46;1.30;99.90
39677;DHT22;27789;50.840;4.386;2024-01-16T08:31:12;1.30;99.90
39677;DHT22;27789;50.840;4.386;2024-01-16T08:33:37;1.30;99.90
39677;DHT22;27789;50.840;4.386;2024-01-16T08:36:03;1.30;99.90
39677;DHT22;27789;50.840;4.386;2024-01-16T08:38:29;1.40;99.90
39677;DHT22;27789;50.840;4.386;2024-01-16T08:40:55;1.40;99.90
39677;DHT22;27789;50.840;4.386;2024-01-16T08:43:20;1.40;99.90
39677;DHT22;27789;50.840;4.386;2024-01-16T08:45:46;1.50;99.90
39677;DHT22;27789;50.840;4.386;2024-01-16T08:48:13;2.00;99.90
39677;DHT22;27789;50.840;4.386;2024-01-16T08:50:40;-0.70;99.90
39677;DHT22;27789;50.840;4.386;2024-01-16T08:53:05;1.70;99.90
39677;DHT22;27789;50.840;4.386;2024-01-16T08:55:32;1.70;99.90
39677;DHT22;27789;50.840;4.386;2024-01-16T08:57:57;1.60;99.90
39677;DHT22;27789;50.840;4.386;2024-01-16T09:00:23;1.60;99.90
39677;DHT22;27789;50.840;4.386;2024-01-16T09:02:48;1.60;99.90
39677;DHT22;27789;50.840;4.386;2024-01-16T09:05:14;1.70;99.90
39677;DHT22;27789;50.840;4.386;2024-01-16T09:07:40;1.70;99.90
39677;DHT22;27789;50.840;4.386;2024-01-16T09:10:06;1.80;99.90
39677;DHT22;27789;50.840;4.386;2024-01-16T09:12:32;1.90;99.90
39677;DHT22;27789;50.840;4.386;2024-01-16T09:14:58;1.90;99.90
39677;DHT22;27789;50.840;4.386;2024-01-16T09:17:24;2.00;99.90
39677;DHT22;27789;50.840;4.386;2024-01-16T09:19:50;2.00;99.90
39677;DHT22;27789;50.840;4.386;2024-01-16T09:22:16;2.10;99.90
39677;DHT22;27789;50.840;4.386;2024-01-16T09:24:43;2.10;99.90
39677;DHT22;27789;50.840;4.386;2024-01-16T09:27:08;2.10;99.90
39677;DHT22;27789;50.840;4.386;2024-01-16T09:29:35;2.10;99.90
39677;DHT22;27789;50.840;4.386;2024-01-16T09:32:00;2.20;99.90
39677;DHT22;27789;50.840;4.386;2024-01-16T09:34:26;2.20;99.90
39677;DHT22;27789;50.840;4.386;2024-01-16T09:36:51;2.20;99.90
39677;DHT22;27789;50.840;4.386;2024-01-16T09:39:17;2.10;99.90
39677;DHT22;27789;50.840;4.386;2024-01-16T09:41:44;2.20;99.90
39677;DHT22;27789;50.840;4.386;2024-01-16T09:44:09;2.10;99.90
39677;DHT22;27789;50.840;4.386;2024-01-16T09:46:37;2.00;99.90
39677;DHT22;27789;50.840;4.386;2024-01-16T09:49:02;2.00;99.90
39677;DHT22;27789;50.840;4.386;2024-01-16T09:51:28;2.10;99.90
39677;DHT22;27789;50.840;4.386;2024-01-16T09:53:54;2.10;99.90
39677;DHT22;27789;50.840;4.386;2024-01-16T09:56:21;2.10;99.90
39677;DHT22;27789;50.840;4.386;2024-01-16T09:58:48;2.20;99.90
39677;DHT22;27789;50.840;4.386;2024-01-16T10:01:14;2.30;99.90
39677;DHT22;27789;50.840;4.386;2024-01-16T10:03:41;2.50;99.90
39677;DHT22;27789;50.840;4.386;2024-01-16T10:06:09;2.60;99.90
39677;DHT22;27789;50.840;4.386;2024-01-16T10:08:35;3.00;99.90
39677;DHT22;27789;50.840;4.386;2024-01-16T10:11:00;3.40;99.90
39677;DHT22;27789;50.840;4.386;2024-01-16T10:13:26;3.70;99.90
39677;DHT22;27789;50.840;4.386;2024-01-16T10:15:52;3.80;99.90
39677;DHT22;27789;50.840;4.386;2024-01-16T10:18:24;4.60;99.90
39677;DHT22;27789;50.840;4.386;2024-01-16T10:20:50;5.00;99.90
39677;DHT22;27789;50.840;4.386;2024-01-16T10:23:22;5.40;99.90
39677;DHT22;27789;50.840;4.386;2024-01-16T10:25:52;5.10;99.90
39677;DHT22;27789;50.840;4.386;2024-01-16T10:28:29;4.90;99.90
39677;DHT22;27789;50.840;4.386;2024-01-16T10:31:01;5.40;99.90
39677;DHT22;27789;50.840;4.386;2024-01-16T10:33:26;5.40;99.90
39677;DHT22;27789;50.840;4.386;2024-01-16T10:36:01;5.60;99.90
39677;DHT22;27789;50.840;4.386;2024-01-16T10:38:32;6.20;99.90
39677;DHT22;27789;50.840;4.386;2024-01-16T10:41:05;6.80;99.80
39677;DHT22;27789;50.840;4.386;2024-01-16T10:43:31;7.00;99.40
39677;DHT22;27789;50.840;4.386;2024-01-16T10:46:06;7.50;99.20
39677;DHT22;27789;50.840;4.386;2024-01-16T10:48:32;8.20;97.80
39677;DHT22;27789;50.840;4.386;2024-01-16T10:50:58;8.90;97.70
39677;DHT22;27789;50.840;4.386;2024-01-16T10:53:23;9.50;96.70
39677;DHT22;27789;50.840;4.386;2024-01-16T10:55:51;9.90;96.30
39677;DHT22;27789;50.840;4.386;2024-01-16T10:58:18;10.30;96.10
39677;DHT22;27789;50.840;4.386;2024-01-16T11:00:44;10.70;94.80
39677;DHT22;27789;50.840;4.386;2024-01-16T11:03:18;10.60;94.80
39677;DHT22;27789;50.840;4.386;2024-01-16T11:05:44;10.70;94.60
39677;DHT22;27789;50.840;4.386;2024-01-16T11:08:09;11.10;94.40
39677;DHT22;27789;50.840;4.386;2024-01-16T11:10:38;11.10;94.10
39677;DHT22;27789;50.840;4.386;2024-01-16T11:13:04;11.70;93.70
39677;DHT22;27789;50.840;4.386;2024-01-16T11:15:30;11.70;93.40
39677;DHT22;27789;50.840;4.386;2024-01-16T11:17:56;12.00;92.80
39677;DHT22;27789;50.840;4.386;2024-01-16T11:20:23;12.20;93.00
39677;DHT22;27789;50.840;4.386;2024-01-16T11:22:48;12.30;92.90
39677;DHT22;27789;50.840;4.386;2024-01-16T11:25:15;12.70;92.50
39677;DHT22;27789;50.840;4.386;2024-01-16T11:27:41;12.70;92.80
39677;DHT22;27789;50.840;4.386;2024-01-16T11:30:07;12.60;92.00
39677;DHT22;27789;50.840;4.386;2024-01-16T11:32:37;12.10;92.50
39677;DHT22;27789;50.840;4.386;2024-01-16T11:35:03;12.50;92.60
39677;DHT22;27789;50.840;4.386;2024-01-16T11:37:30;13.00;92.10
39677;DHT22;27789;50.840;4.386;2024-01-16T11:42:40;11.80;92.40
39677;DHT22;27789;50.840;4.386;2024-01-16T11:45:08;10.60;93.40
39677;DHT22;27789;50.840;4.386;2024-01-16T11:48:09;11.90;92.70
39677;DHT22;27789;50.840;4.386;2024-01-16T11:50:35;12.20;92.40
39677;DHT22;27789;50.840;4.386;2024-01-16T11:53:01;12.80;91.50
39677;DHT22;27789;50.840;4.386;2024-01-16T11:55:30;13.30;91.40
39677;DHT22;27789;50.840;4.386;2024-01-16T12:00:42;13.10;91.00
39677;DHT22;27789;50.840;4.386;2024-01-16T12:03:11;13.10;90.80
39677;DHT22;27789;50.840;4.386;2024-01-16T12:05:38;13.30;91.20
39677;DHT22;27789;50.840;4.386;2024-01-16T12:08:04;13.60;90.40
39677;DHT22;27789;50.840;4.386;2024-01-16T12:10:31;13.90;90.70
39677;DHT22;27789;50.840;4.386;2024-01-16T12:12:58;14.30;90.40
39677;DHT22;27789;50.840;4.386;2024-01-16T12:15:23;14.80;90.20
39677;DHT22;27789;50.840;4.386;2024-01-16T12:20:18;15.40;88.30
39677;DHT22;27789;50.840;4.386;2024-01-16T12:22:43;15.30;88.40
39677;DHT22;27789;50.840;4.386;2024-01-16T12:25:09;15.10;87.60
39677;DHT22;27789;50.840;4.386;2024-01-16T12:27:34;15.40;88.00
39677;DHT22;27789;50.840;4.386;2024-01-16T12:30:10;15.50;88.20
39677;DHT22;27789;50.840;4.386;2024-01-16T12:32:35;15.80;87.80
39677;DHT22;27789;50.840;4.386;2024-01-16T12:35:01;15.30;87.80
39677;DHT22;27789;50.840;4.386;2024-01-16T12:37:27;15.50;88.70
39677;DHT22;27789;50.840;4.386;2024-01-16T12:39:53;15.20;87.30
39677;DHT22;27789;50.840;4.386;2024-01-16T12:42:18;15.10;87.80
39677;DHT22;27789;50.840;4.386;2024-01-16T12:44:44;13.80;89.00
39677;DHT22;27789;50.840;4.386;2024-01-16T12:47:14;11.40;88.30
39677;DHT22;27789;50.840;4.386;2024-01-16T12:49:40;13.90;90.20
39677;DHT22;27789;50.840;4.386;2024-01-16T12:52:20;13.60;89.50
39677;DHT22;27789;50.840;4.386;2024-01-16T12:54:57;13.20;90.10
39677;DHT22;27789;50.840;4.386;2024-01-16T12:57:23;13.00;90.80
39677;DHT22;27789;50.840;4.386;2024-01-16T12:59:48;13.00;90.10
39677;DHT22;27789;50.840;4.386;2024-01-16T13:02:23;13.70;90.50
39677;DHT22;27789;50.840;4.386;2024-01-16T13:04:56;14.60;90.10
39677;DHT22;27789;50.840;4.386;2024-01-16T13:07:23;15.20;89.90
39677;DHT22;27789;50.840;4.386;2024-01-16T13:09:49;15.40;88.60
39677;DHT22;27789;50.840;4.386;2024-01-16T13:12:20;15.60;87.70
39677;DHT22;27789;50.840;4.386;2024-01-16T13:14:46;15.20;87.90
39677;DHT22;27789;50.840;4.386;2024-01-16T13:17:11;15.20;88.40
39677;DHT22;27789;50.840;4.386;2024-01-16T13:19:37;15.20;88.40
39677;DHT22;27789;50.840;4.386;2024-01-16T13:22:03;15.20;87.50
39677;DHT22;27789;50.840;4.386;2024-01-16T13:24:29;14.50;88.20
39677;DHT22;27789;50.840;4.386;2024-01-16T13:26:55;14.30;89.90
39677;DHT22;27789;50.840;4.386;2024-01-16T13:29:20;13.30;89.90
39677;DHT22;27789;50.840;4.386;2024-01-16T13:31:45;13.40;90.20
39677;DHT22;27789;50.840;4.386;2024-01-16T13:34:11;13.80;89.70
39677;DHT22;27789;50.840;4.386;2024-01-16T13:36:37;13.70;89.30
39677;DHT22;27789;50.840;4.386;2024-01-16T13:39:02;14.30;90.00
39677;DHT22;27789;50.840;4.386;2024-01-16T13:41:28;14.60;87.90
39677;DHT22;27789;50.840;4.386;2024-01-16T13:43:54;14.20;88.20
39677;DHT22;27789;50.840;4.386;2024-01-16T13:46:19;12.80;89.40
39677;DHT22;27789;50.840;4.386;2024-01-16T13:48:45;11.60;90.20
39677;DHT22;27789;50.840;4.386;2024-01-16T13:51:10;11.80;90.60
39677;DHT22;27789;50.840;4.386;2024-01-16T13:53:36;11.80;90.40
39677;DHT22;27789;50.840;4.386;2024-01-16T13:56:02;11.50;90.90
39677;DHT22;27789;50.840;4.386;2024-01-16T13:58:27;10.90;91.30
39677;DHT22;27789;50.840;4.386;2024-01-16T14:00:52;10.10;91.60
39677;DHT22;27789;50.840;4.386;2024-01-16T14:03:19;9.70;92.00
39677;DHT22;27789;50.840;4.386;2024-01-16T14:05:45;9.70;92.50
39677;DHT22;27789;50.840;4.386;2024-01-16T14:08:11;9.90;92.30
39677;DHT22;27789;50.840;4.386;2024-01-16T14:10:38;9.70;92.40
39677;DHT22;27789;50.840;4.386;2024-01-16T14:13:03;9.90;92.20
39677;DHT22;27789;50.840;4.386;2024-01-16T14:15:29;9.70;92.30
39677;DHT22;27789;50.840;4.386;2024-01-16T14:17:55;9.20;92.30
39677;DHT22;27789;50.840;4.386;2024-01-16T14:20:22;9.30;92.60
39677;DHT22;27789;50.840;4.386;2024-01-16T14:22:54;9.10;92.60
39677;DHT22;27789;50.840;4.386;2024-01-16T14:25:20;8.80;92.50
39677;DHT22;27789;50.840;4.386;2024-01-16T14:27:56;8.80;93.00
39677;DHT22;27789;50.840;4.386;2024-01-16T14:30:23;9.00;93.20
39677;DHT22;27789;50.840;4.386;2024-01-16T14:32:50;8.90;92.60
39677;DHT22;27789;50.840;4.386;2024-01-16T14:35:16;8.70;92.90
39677;DHT22;27789;50.840;4.386;2024-01-16T14:37:42;8.50;93.30
39677;DHT22;27789;50.840;4.386;2024-01-16T14:40:08;8.30;93.20
39677;DHT22;27789;50.840;4.386;2024-01-16T14:42:38;7.80;93.50
39677;DHT22;27789;50.840;4.386;2024-01-16T14:45:04;8.30;94.30
39677;DHT22;27789;50.840;4.386;2024-01-16T14:47:31;6.60;94.50
39677;DHT22;27789;50.840;4.386;2024-01-16T14:49:56;6.60;94.80
39677;DHT22;27789;50.840;4.386;2024-01-16T14:52:23;6.40;95.40
39677;DHT22;27789;50.840;4.386;2024-01-16T14:54:48;6.20;95.40
39677;DHT22;27789;50.840;4.386;2024-01-16T14:57:15;6.20;95.90
39677;DHT22;27789;50.840;4.386;2024-01-16T14:59:41;6.00;95.60
39677;DHT22;27789;50.840;4.386;2024-01-16T15:02:07;5.90;95.90
39677;DHT22;27789;50.840;4.386;2024-01-16T15:04:38;5.90;96.40
39677;DHT22;27789;50.840;4.386;2024-01-16T15:07:04;5.80;96.50
39677;DHT22;27789;50.840;4.386;2024-01-16T15:09:30;5.80;96.40
39677;DHT22;27789;50.840;4.386;2024-01-16T15:11:55;3.90;96.20
39677;DHT22;27789;50.840;4.386;2024-01-16T15:14:20;5.70;96.40
39677;DHT22;27789;50.840;4.386;2024-01-16T15:19:16;5.40;96.40
39677;DHT22;27789;50.840;4.386;2024-01-16T15:21:41;5.40;96.80
39677;DHT22;27789;50.840;4.386;2024-01-16T15:24:07;5.30;96.60
39677;DHT22;27789;50.840;4.386;2024-01-16T15:26:32;5.30;97.20
39677;DHT22;27789;50.840;4.386;2024-01-16T15:29:01;5.20;96.80
39677;DHT22;27789;50.840;4.386;2024-01-16T15:31:26;5.10;97.60
39677;DHT22;27789;50.840;4.386;2024-01-16T15:33:52;5.20;98.20
39677;DHT22;27789;50.840;4.386;2024-01-16T15:36:17;5.20;98.70
39677;DHT22;27789;50.840;4.386;2024-01-16T15:38:42;5.10;97.50
39677;DHT22;27789;50.840;4.386;2024-01-16T15:41:08;5.10;98.40
39677;DHT22;27789;50.840;4.386;2024-01-16T15:43:33;5.30;97.50
39677;DHT22;27789;50.840;4.386;2024-01-16T15:45:59;4.90;97.00